sensor_id;sensor_type;location;lat;lon;timestamp;P1;durP1;ratioP1;P2;durP2;ratioP2
14799;SDS011;7491;57.750;11.970;2024-03-23T00:55:35;44.85;;;6.18;;
14799;SDS011;7491;57.750;11.970;2024-03-23T00:58:01;33.05;;;5.95;;
14799;SDS011;7491;57.750;11.970;2024-03-23T01:00:28;30.48;;;5.45;;
14799;SDS011;7491;57.750;11.970;2024-03-23T01:02:55;41.90;;;6.63;;
14799;SDS011;7491;57.750;11.970;2024-03-23T01:05:21;38.55;;;5.63;;
14799;SDS011;7491;57.750;11.970;2024-03-23T01:07:48;37.28;;;6.40;;
14799;SDS011;7491;57.750;11.970;2024-03-23T01:10:13;35.70;;;5.85;;
14799;SDS011;7491;57.750;11.970;2024-03-23T01:12:40;40.63;;;5.55;;
14799;SDS011;7491;57.750;11.970;2024-03-23T01:15:06;36.65;;;4.75;;
14799;SDS011;7491;57.750;11.970;2024-03-23T01:17:35;35.47;;;5.80;;
14799;SDS011;7491;57.750;11.970;2024-03-23T01:20:00;40.28;;;5.57;;
14799;SDS011;7491;57.750;11.970;2024-03-23T01:22:28;26.73;;;6.13;;
14799;SDS011;7491;57.750;11.970;2024-03-23T01:24:53;38.45;;;5.50;;
14799;SDS011;7491;57.750;11.970;2024-03-23T01:27:20;27.58;;;5.35;;
14799;SDS011;7491;57.750;11.970;2024-03-23T01:29:46;46.92;;;6.65;;
14799;SDS011;7491;57.750;11.970;2024-03-23T01:32:13;34.95;;;5.47;;
14799;SDS011;7491;57.750;11.970;2024-03-23T01:34:40;37.97;;;6.18;;
14799;SDS011;7491;57.750;11.970;2024-03-23T01:37:07;41.50;;;6.88;;
14799;SDS011;7491;57.750;11.970;2024-03-23T01:39:32;42.35;;;6.28;;
14799;SDS011;7491;57.750;11.970;2024-03-23T01:41:59;43.35;;;7.05;;
14799;SDS011;7491;57.750;11.970;2024-03-23T01:44:25;39.72;;;5.25;;
14799;SDS011;7491;57.750;11.970;2024-03-23T01:46:51;37.92;;;6.32;;
14799;SDS011;7491;57.750;11.970;2024-03-23T01:49:17;39.67;;;5.82;;
14799;SDS011;7491;57.750;11.970;2024-03-23T01:51:45;35.58;;;5.78;;
14799;SDS011;7491;57.750;11.970;2024-03-23T01:54:11;35.72;;;5.53;;
14799;SDS011;7491;57.750;11.970;2024-03-23T01:56:38;36.47;;;5.68;;
14799;SDS011;7491;57.750;11.970;2024-03-23T01:59:04;31.77;;;4.78;;
14799;SDS011;7491;57.750;11.970;2024-03-23T02:01:31;43.17;;;6.78;;
14799;SDS011;7491;57.750;11.970;2024-03-23T02:03:58;30.02;;;5.80;;
14799;SDS011;7491;57.750;11.970;2024-03-23T02:06:24;34.15;;;5.43;;
14799;SDS011;7491;57.750;11.970;2024-03-23T02:08:52;38.63;;;5.82;;
14799;SDS011;7491;57.750;11.970;2024-03-23T02:11:19;29.15;;;5.93;;
14799;SDS011;7491;57.750;11.970;2024-03-23T02:13:45;28.88;;;4.88;;
14799;SDS011;7491;57.750;11.970;2024-03-23T02:16:12;38.08;;;5.30;;
14799;SDS011;7491;57.750;11.970;2024-03-23T02:18:38;40.65;;;5.40;;
14799;SDS011;7491;57.750;11.970;2024-03-23T02:21:05;41.25;;;7.38;;
14799;SDS011;7491;57.750;11.970;2024-03-23T02:23:32;40.47;;;5.85;;
14799;SDS011;7491;57.750;11.970;2024-03-23T02:25:59;36.75;;;6.40;;
14799;SDS011;7491;57.750;11.970;2024-03-23T02:28:24;29.80;;;6.03;;
14799;SDS011;7491;57.750;11.970;2024-03-23T02:30:51;39.72;;;6.60;;
14799;SDS011;7491;57.750;11.970;2024-03-23T02:33:17;45.20;;;7.05;;
14799;SDS011;7491;57.750;11.970;2024-03-23T02:35:45;36.40;;;5.85;;
14799;SDS011;7491;57.750;11.970;2024-03-23T02:38:11;40.83;;;5.03;;
14799;SDS011;7491;57.750;11.970;2024-03-23T02:40:39;39.47;;;5.90;;
14799;SDS011;7491;57.750;11.970;2024-03-23T02:43:05;30.80;;;4.38;;
14799;SDS011;7491;57.750;11.970;2024-03-23T02:45:32;34.63;;;5.40;;
14799;SDS011;7491;57.750;11.970;2024-03-23T02:47:58;31.20;;;5.65;;
14799;SDS011;7491;57.750;11.970;2024-03-23T02:50:25;37.92;;;5.32;;
14799;SDS011;7491;57.750;11.970;2024-03-23T02:52:50;37.53;;;5.20;;
14799;SDS011;7491;57.750;11.970;2024-03-23T02:55:17;35.90;;;5.10;;
14799;SDS011;7491;57.750;11.970;2024-03-23T02:57:44;34.03;;;5.63;;
14799;SDS011;7491;57.750;11.970;2024-03-23T03:00:11;36.50;;;5.72;;
14799;SDS011;7491;57.750;11.970;2024-03-23T03:02:38;36.95;;;5.25;;
14799;SDS011;7491;57.750;11.970;2024-03-23T03:05:05;45.28;;;6.55;;
14799;SDS011;7491;57.750;11.970;2024-03-23T03:07:31;43.58;;;6.63;;
14799;SDS011;7491;57.750;11.970;2024-03-23T03:09:58;43.78;;;5.43;;
14799;SDS011;7491;57.750;11.970;2024-03-23T03:12:24;35.88;;;5.38;;
14799;SDS011;7491;57.750;11.970;2024-03-23T03:14:52;33.38;;;5.75;;
14799;SDS011;7491;57.750;11.970;2024-03-23T03:17:17;30.00;;;5.60;;
14799;SDS011;7491;57.750;11.970;2024-03-23T03:19:44;40.08;;;7.47;;
14799;SDS011;7491;57.750;11.970;2024-03-23T03:22:11;46.45;;;7.72;;
14799;SDS011;7491;57.750;11.970;2024-03-23T03:24:37;35.70;;;4.85;;
14799;SDS011;7491;57.750;11.970;2024-03-23T03:27:03;48.58;;;6.88;;
14799;SDS011;7491;57.750;11.970;2024-03-23T03:29:31;39.25;;;5.18;;
14799;SDS011;7491;57.750;11.970;2024-03-23T03:32:02;41.40;;;5.22;;
14799;SDS011;7491;57.750;11.970;2024-03-23T03:34:28;34.55;;;5.57;;
14799;SDS011;7491;57.750;11.970;2024-03-23T03:36:54;33.08;;;5.05;;
14799;SDS011;7491;57.750;11.970;2024-03-23T03:39:21;35.35;;;5.70;;
14799;SDS011;7491;57.750;11.970;2024-03-23T03:41:47;38.25;;;5.03;;
14799;SDS011;7491;57.750;11.970;2024-03-23T03:44:14;33.08;;;5.28;;
14799;SDS011;7491;57.750;11.970;2024-03-23T03:46:40;32.88;;;4.97;;
14799;SDS011;7491;57.750;11.970;2024-03-23T03:49:08;36.33;;;5.53;;
14799;SDS011;7491;57.750;11.970;2024-03-23T03:51:34;41.00;;;6.10;;
14799;SDS011;7491;57.750;11.970;2024-03-23T03:54:01;36.63;;;5.90;;
14799;SDS011;7491;57.750;11.970;2024-03-23T03:56:27;35.97;;;5.97;;
14799;SDS011;7491;57.750;11.970;2024-03-23T03:58:54;33.35;;;4.63;;
14799;SDS011;7491;57.750;11.970;2024-03-23T04:01:19;34.20;;;5.90;;
14799;SDS011;7491;57.750;11.970;2024-03-23T04:03:46;29.23;;;4.03;;
14799;SDS011;7491;57.750;11.970;2024-03-23T04:06:15;38.38;;;6.18;;
14799;SDS011;7491;57.750;11.970;2024-03-23T04:08:45;36.55;;;5.35;;
14799;SDS011;7491;57.750;11.970;2024-03-23T04:11:10;37.22;;;5.35;;
14799;SDS011;7491;57.750;11.970;2024-03-23T04:13:37;29.08;;;5.00;;
14799;SDS011;7491;57.750;11.970;2024-03-23T04:16:03;33.38;;;4.93;;
14799;SDS011;7491;57.750;11.970;2024-03-23T04:18:30;34.47;;;4.72;;
14799;SDS011;7491;57.750;11.970;2024-03-23T04:20:56;40.05;;;6.15;;
14799;SDS011;7491;57.750;11.970;2024-03-23T04:23:24;25.27;;;4.15;;
14799;SDS011;7491;57.750;11.970;2024-03-23T04:25:50;33.75;;;4.65;;
14799;SDS011;7491;57.750;11.970;2024-03-23T04:28:18;31.08;;;4.70;;
14799;SDS011;7491;57.750;11.970;2024-03-23T04:30:44;32.17;;;5.45;;
14799;SDS011;7491;57.750;11.970;2024-03-23T04:33:10;26.45;;;4.53;;
14799;SDS011;7491;57.750;11.970;2024-03-23T04:35:36;40.92;;;6.28;;
14799;SDS011;7491;57.750;11.970;2024-03-23T04:38:03;35.33;;;5.43;;
14799;SDS011;7491;57.750;11.970;2024-03-23T04:40:31;32.85;;;4.60;;
14799;SDS011;7491;57.750;11.970;2024-03-23T04:42:58;39.20;;;5.30;;
14799;SDS011;7491;57.750;11.970;2024-03-23T04:45:26;31.35;;;4.75;;
14799;SDS011;7491;57.750;11.970;2024-03-23T04:47:52;26.38;;;4.28;;
14799;SDS011;7491;57.750;11.970;2024-03-23T04:50:18;34.92;;;5.38;;
14799;SDS011;7491;57.750;11.970;2024-03-23T04:52:45;31.73;;;5.22;;
14799;SDS011;7491;57.750;11.970;2024-03-23T04:55:12;28.48;;;4.57;;
14799;SDS011;7491;57.750;11.970;2024-03-23T04:57:41;38.97;;;5.70;;
14799;SDS011;7491;57.750;11.970;2024-03-23T05:00:07;38.28;;;4.95;;
14799;SDS011;7491;57.750;11.970;2024-03-23T05:02:42;31.33;;;4.50;;
14799;SDS011;7491;57.750;11.970;2024-03-23T05:05:09;27.80;;;4.90;;
14799;SDS011;7491;57.750;11.970;2024-03-23T05:07:35;37.38;;;5.07;;
14799;SDS011;7491;57.750;11.970;2024-03-23T05:10:02;32.05;;;3.75;;
14799;SDS011;7491;57.750;11.970;2024-03-23T05:12:28;42.35;;;5.38;;
14799;SDS011;7491;57.750;11.970;2024-03-23T05:14:56;28.50;;;4.22;;
14799;SDS011;7491;57.750;11.970;2024-03-23T05:17:22;30.13;;;5.00;;
14799;SDS011;7491;57.750;11.970;2024-03-23T05:19:49;29.98;;;4.05;;
14799;SDS011;7491;57.750;11.970;2024-03-23T05:22:15;31.75;;;4.60;;
14799;SDS011;7491;57.750;11.970;2024-03-23T05:24:41;39.15;;;4.95;;
14799;SDS011;7491;57.750;11.970;2024-03-23T05:27:07;33.65;;;4.43;;
14799;SDS011;7491;57.750;11.970;2024-03-23T05:29:34;36.70;;;4.43;;
14799;SDS011;7491;57.750;11.970;2024-03-23T05:32:01;33.22;;;5.13;;
14799;SDS011;7491;57.750;11.970;2024-03-23T05:34:27;33.92;;;5.13;;
14799;SDS011;7491;57.750;11.970;2024-03-23T05:36:54;27.00;;;4.97;;
14799;SDS011;7491;57.750;11.970;2024-03-23T05:39:21;29.52;;;4.80;;
14799;SDS011;7491;57.750;11.970;2024-03-23T05:41:47;36.35;;;6.40;;
14799;SDS011;7491;57.750;11.970;2024-03-23T05:44:14;36.47;;;5.25;;
14799;SDS011;7491;57.750;11.970;2024-03-23T05:46:40;22.35;;;3.78;;
14799;SDS011;7491;57.750;11.970;2024-03-23T05:49:09;36.13;;;4.90;;
14799;SDS011;7491;57.750;11.970;2024-03-23T05:51:35;37.10;;;6.32;;
14799;SDS011;7491;57.750;11.970;2024-03-23T05:54:01;24.65;;;5.63;;
14799;SDS011;7491;57.750;11.970;2024-03-23T05:56:27;37.60;;;5.15;;
14799;SDS011;7491;57.750;11.970;2024-03-23T05:58:54;35.20;;;4.30;;
14799;SDS011;7491;57.750;11.970;2024-03-23T06:01:21;32.38;;;5.43;;
14799;SDS011;7491;57.750;11.970;2024-03-23T06:03:46;35.40;;;4.68;;
14799;SDS011;7491;57.750;11.970;2024-03-23T06:06:14;29.95;;;4.70;;
14799;SDS011;7491;57.750;11.970;2024-03-23T06:08:40;36.30;;;5.47;;
14799;SDS011;7491;57.750;11.970;2024-03-23T06:11:07;36.75;;;6.88;;
14799;SDS011;7491;57.750;11.970;2024-03-23T06:13:33;36.80;;;6.60;;
14799;SDS011;7491;57.750;11.970;2024-03-23T06:16:00;39.47;;;6.97;;
14799;SDS011;7491;57.750;11.970;2024-03-23T06:18:25;37.05;;;5.22;;
14799;SDS011;7491;57.750;11.970;2024-03-23T06:20:52;30.95;;;4.68;;
14799;SDS011;7491;57.750;11.970;2024-03-23T06:23:20;41.92;;;6.60;;
14799;SDS011;7491;57.750;11.970;2024-03-23T06:25:47;36.13;;;5.28;;
14799;SDS011;7491;57.750;11.970;2024-03-23T06:28:13;36.88;;;5.60;;
14799;SDS011;7491;57.750;11.970;2024-03-23T06:30:40;39.35;;;5.68;;
14799;SDS011;7491;57.750;11.970;2024-03-23T06:33:06;36.40;;;5.20;;
14799;SDS011;7491;57.750;11.970;2024-03-23T06:35:33;31.17;;;4.65;;
14799;SDS011;7491;57.750;11.970;2024-03-23T06:37:58;30.70;;;5.65;;
14799;SDS011;7491;57.750;11.970;2024-03-23T06:40:26;26.55;;;5.22;;
14799;SDS011;7491;57.750;11.970;2024-03-23T06:42:52;36.63;;;6.05;;
14799;SDS011;7491;57.750;11.970;2024-03-23T06:45:19;45.45;;;5.70;;
14799;SDS011;7491;57.750;11.970;2024-03-23T06:47:48;24.95;;;4.38;;
14799;SDS011;7491;57.750;11.970;2024-03-23T06:50:15;37.03;;;5.20;;
14799;SDS011;7491;57.750;11.970;2024-03-23T06:52:41;31.45;;;4.97;;
14799;SDS011;7491;57.750;11.970;2024-03-23T06:55:08;28.90;;;5.90;;
14799;SDS011;7491;57.750;11.970;2024-03-23T06:57:35;37.80;;;5.05;;
14799;SDS011;7491;57.750;11.970;2024-03-23T07:00:01;30.38;;;5.32;;
14799;SDS011;7491;57.750;11.970;2024-03-23T07:02:27;29.05;;;4.70;;
14799;SDS011;7491;57.750;11.970;2024-03-23T07:04:54;39.45;;;6.15;;
14799;SDS011;7491;57.750;11.970;2024-03-23T07:07:20;34.95;;;5.63;;
14799;SDS011;7491;57.750;11.970;2024-03-23T07:09:48;29.48;;;5.30;;
14799;SDS011;7491;57.750;11.970;2024-03-23T07:12:13;33.78;;;5.43;;
14799;SDS011;7491;57.750;11.970;2024-03-23T07:14:42;27.10;;;4.47;;
14799;SDS011;7491;57.750;11.970;2024-03-23T07:17:07;42.42;;;5.63;;
14799;SDS011;7491;57.750;11.970;2024-03-23T07:19:34;25.02;;;5.10;;
14799;SDS011;7491;57.750;11.970;2024-03-23T07:22:00;33.88;;;5.22;;
14799;SDS011;7491;57.750;11.970;2024-03-23T07:24:26;30.85;;;5.10;;
14799;SDS011;7491;57.750;11.970;2024-03-23T07:26:52;39.00;;;6.95;;
14799;SDS011;7491;57.750;11.970;2024-03-23T07:29:19;28.50;;;4.60;;
14799;SDS011;7491;57.750;11.970;2024-03-23T07:31:46;26.75;;;5.38;;
14799;SDS011;7491;57.750;11.970;2024-03-23T07:34:13;38.28;;;5.32;;
14799;SDS011;7491;57.750;11.970;2024-03-23T07:36:38;31.35;;;4.32;;
14799;SDS011;7491;57.750;11.970;2024-03-23T07:39:05;33.65;;;4.47;;
14799;SDS011;7491;57.750;11.970;2024-03-23T07:41:31;36.65;;;5.25;;
14799;SDS011;7491;57.750;11.970;2024-03-23T07:43:58;31.95;;;5.05;;
14799;SDS011;7491;57.750;11.970;2024-03-23T07:46:23;30.80;;;5.10;;
14799;SDS011;7491;57.750;11.970;2024-03-23T07:48:52;24.98;;;4.32;;
14799;SDS011;7491;57.750;11.970;2024-03-23T07:51:20;28.52;;;4.85;;
14799;SDS011;7491;57.750;11.970;2024-03-23T07:53:48;29.50;;;5.35;;
14799;SDS011;7491;57.750;11.970;2024-03-23T07:56:14;31.27;;;5.63;;
14799;SDS011;7491;57.750;11.970;2024-03-23T07:58:43;24.77;;;4.78;;
14799;SDS011;7491;57.750;11.970;2024-03-23T08:01:09;24.88;;;4.38;;
14799;SDS011;7491;57.750;11.970;2024-03-23T08:03:41;23.00;;;2.95;;
14799;SDS011;7491;57.750;11.970;2024-03-23T08:06:17;29.33;;;4.70;;
14799;SDS011;7491;57.750;11.970;2024-03-23T08:08:47;22.35;;;4.53;;
14799;SDS011;7491;57.750;11.970;2024-03-23T08:11:24;39.00;;;4.93;;
14799;SDS011;7491;57.750;11.970;2024-03-23T08:13:51;36.05;;;5.18;;
14799;SDS011;7491;57.750;11.970;2024-03-23T08:16:17;21.23;;;4.63;;
14799;SDS011;7491;57.750;11.970;2024-03-23T08:18:44;27.48;;;4.60;;
14799;SDS011;7491;57.750;11.970;2024-03-23T08:21:10;29.55;;;4.40;;
14799;SDS011;7491;57.750;11.970;2024-03-23T08:23:38;34.63;;;5.22;;
14799;SDS011;7491;57.750;11.970;2024-03-23T08:26:06;29.00;;;5.43;;
14799;SDS011;7491;57.750;11.970;2024-03-23T08:28:33;28.83;;;4.85;;
14799;SDS011;7491;57.750;11.970;2024-03-23T08:31:00;26.00;;;5.18;;
14799;SDS011;7491;57.750;11.970;2024-03-23T08:33:27;27.80;;;5.03;;
14799;SDS011;7491;57.750;11.970;2024-03-23T08:35:55;32.47;;;4.65;;
14799;SDS011;7491;57.750;11.970;2024-03-23T08:38:22;29.20;;;6.25;;
14799;SDS011;7491;57.750;11.970;2024-03-23T08:41:01;32.55;;;5.05;;
14799;SDS011;7491;57.750;11.970;2024-03-23T08:43:42;31.50;;;5.57;;
14799;SDS011;7491;57.750;11.970;2024-03-23T08:46:23;21.33;;;4.18;;
14799;SDS011;7491;57.750;11.970;2024-03-23T08:48:51;38.33;;;4.93;;
14799;SDS011;7491;57.750;11.970;2024-03-23T08:51:18;32.75;;;5.28;;
14799;SDS011;7491;57.750;11.970;2024-03-23T08:53:44;24.65;;;4.53;;
14799;SDS011;7491;57.750;11.970;2024-03-23T08:59:16;24.27;;;5.18;;
14799;SDS011;7491;57.750;11.970;2024-03-23T09:01:49;24.10;;;4.13;;
14799;SDS011;7491;57.750;11.970;2024-03-23T09:04:44;27.98;;;4.53;;
14799;SDS011;7491;57.750;11.970;2024-03-23T09:07:10;25.52;;;4.97;;
14799;SDS011;7491;57.750;11.970;2024-03-23T09:09:39;21.95;;;4.97;;
14799;SDS011;7491;57.750;11.970;2024-03-23T09:12:05;27.35;;;4.78;;
14799;SDS011;7491;57.750;11.970;2024-03-23T09:17:20;23.25;;;3.95;;
14799;SDS011;7491;57.750;11.970;2024-03-23T09:19:50;27.02;;;3.65;;
14799;SDS011;7491;57.750;11.970;2024-03-23T09:22:19;24.90;;;4.18;;
14799;SDS011;7491;57.750;11.970;2024-03-23T09:24:46;25.45;;;4.13;;
14799;SDS011;7491;57.750;11.970;2024-03-23T09:27:11;25.63;;;4.93;;
14799;SDS011;7491;57.750;11.970;2024-03-23T09:29:38;28.00;;;4.70;;
14799;SDS011;7491;57.750;11.970;2024-03-23T09:32:07;33.22;;;4.68;;
14799;SDS011;7491;57.750;11.970;2024-03-23T09:34:45;27.27;;;5.53;;
14799;SDS011;7491;57.750;11.970;2024-03-23T09:37:17;32.72;;;4.97;;
14799;SDS011;7491;57.750;11.970;2024-03-23T09:39:44;28.88;;;4.47;;
14799;SDS011;7491;57.750;11.970;2024-03-23T09:42:10;23.70;;;4.95;;
14799;SDS011;7491;57.750;11.970;2024-03-23T09:44:36;26.15;;;4.35;;
14799;SDS011;7491;57.750;11.970;2024-03-23T09:47:02;28.80;;;4.10;;
14799;SDS011;7491;57.750;11.970;2024-03-23T09:49:33;22.30;;;4.75;;
14799;SDS011;7491;57.750;11.970;2024-03-23T09:52:01;29.98;;;4.53;;
14799;SDS011;7491;57.750;11.970;2024-03-23T09:54:29;24.33;;;4.20;;
14799;SDS011;7491;57.750;11.970;2024-03-23T09:56:55;28.00;;;4.50;;
14799;SDS011;7491;57.750;11.970;2024-03-23T09:59:22;21.77;;;4.80;;
14799;SDS011;7491;57.750;11.970;2024-03-23T10:01:47;18.30;;;3.45;;
14799;SDS011;7491;57.750;11.970;2024-03-23T10:07:12;21.92;;;4.70;;
14799;SDS011;7491;57.750;11.970;2024-03-23T10:09:40;25.92;;;3.90;;
14799;SDS011;7491;57.750;11.970;2024-03-23T10:12:09;25.38;;;3.85;;
14799;SDS011;7491;57.750;11.970;2024-03-23T10:14:37;43.42;;;5.32;;
14799;SDS011;7491;57.750;11.970;2024-03-23T10:17:16;29.90;;;5.78;;
14799;SDS011;7491;57.750;11.970;2024-03-23T10:20:01;41.63;;;5.55;;
14799;SDS011;7491;57.750;11.970;2024-03-23T10:22:27;33.92;;;5.80;;
14799;SDS011;7491;57.750;11.970;2024-03-23T10:25:04;26.83;;;4.85;;
14799;SDS011;7491;57.750;11.970;2024-03-23T10:28:18;30.45;;;5.10;;
14799;SDS011;7491;57.750;11.970;2024-03-23T10:31:21;24.13;;;3.97;;
14799;SDS011;7491;57.750;11.970;2024-03-23T10:34:31;24.70;;;4.15;;
14799;SDS011;7491;57.750;11.970;2024-03-23T10:37:06;27.08;;;5.18;;
14799;SDS011;7491;57.750;11.970;2024-03-23T10:39:34;29.70;;;4.43;;
14799;SDS011;7491;57.750;11.970;2024-03-23T10:42:03;29.88;;;6.30;;
14799;SDS011;7491;57.750;11.970;2024-03-23T10:47:58;24.80;;;4.50;;
14799;SDS011;7491;57.750;11.970;2024-03-23T10:51:33;30.77;;;4.97;;
14799;SDS011;7491;57.750;11.970;2024-03-23T10:54:22;21.67;;;4.15;;
14799;SDS011;7491;57.750;11.970;2024-03-23T10:57:08;29.45;;;4.10;;
14799;SDS011;7491;57.750;11.970;2024-03-23T11:04:09;32.67;;;4.93;;
14799;SDS011;7491;57.750;11.970;2024-03-23T11:07:30;27.52;;;4.78;;
14799;SDS011;7491;57.750;11.970;2024-03-23T11:13:32;30.20;;;3.97;;
14799;SDS011;7491;57.750;11.970;2024-03-23T11:34:51;26.17;;;4.78;;
14799;SDS011;7491;57.750;11.970;2024-03-23T11:48:07;20.08;;;3.67;;
14799;SDS011;7491;57.750;11.970;2024-03-23T11:50:57;17.98;;;3.50;;
14799;SDS011;7491;57.750;11.970;2024-03-23T11:53:27;22.38;;;3.47;;
14799;SDS011;7491;57.750;11.970;2024-03-23T11:55:53;20.42;;;3.75;;
14799;SDS011;7491;57.750;11.970;2024-03-23T11:58:22;20.65;;;4.22;;
14799;SDS011;7491;57.750;11.970;2024-03-23T12:00:49;22.13;;;3.78;;
14799;SDS011;7491;57.750;11.970;2024-03-23T12:03:17;19.35;;;3.60;;
14799;SDS011;7491;57.750;11.970;2024-03-23T12:05:47;16.88;;;3.88;;
14799;SDS011;7491;57.750;11.970;2024-03-23T12:08:20;16.85;;;4.10;;
14799;SDS011;7491;57.750;11.970;2024-03-23T12:10:52;17.48;;;3.80;;
14799;SDS011;7491;57.750;11.970;2024-03-23T12:13:40;19.55;;;4.10;;
14799;SDS011;7491;57.750;11.970;2024-03-23T12:16:17;15.88;;;3.40;;
14799;SDS011;7491;57.750;11.970;2024-03-23T12:18:47;19.17;;;3.75;;
14799;SDS011;7491;57.750;11.970;2024-03-23T12:21:14;25.38;;;5.03;;
14799;SDS011;7491;57.750;11.970;2024-03-23T12:23:43;21.58;;;3.88;;
14799;SDS011;7491;57.750;11.970;2024-03-23T12:26:10;23.85;;;4.13;;
14799;SDS011;7491;57.750;11.970;2024-03-23T12:28:37;19.48;;;3.42;;
14799;SDS011;7491;57.750;11.970;2024-03-23T12:31:05;24.35;;;4.10;;
14799;SDS011;7491;57.750;11.970;2024-03-23T12:33:37;25.15;;;3.47;;
14799;SDS011;7491;57.750;11.970;2024-03-23T12:36:06;16.77;;;2.42;;
14799;SDS011;7491;57.750;11.970;2024-03-23T12:38:37;24.77;;;4.82;;
14799;SDS011;7491;57.750;11.970;2024-03-23T12:41:14;23.70;;;3.20;;
14799;SDS011;7491;57.750;11.970;2024-03-23T12:47:09;21.58;;;3.30;;
14799;SDS011;7491;57.750;11.970;2024-03-23T12:49:45;25.02;;;4.03;;
14799;SDS011;7491;57.750;11.970;2024-03-23T12:52:12;16.63;;;3.65;;
14799;SDS011;7491;57.750;11.970;2024-03-23T12:54:38;24.13;;;4.73;;
14799;SDS011;7491;57.750;11.970;2024-03-23T12:57:11;23.77;;;4.75;;
14799;SDS011;7491;57.750;11.970;2024-03-23T12:59:44;21.85;;;4.10;;
14799;SDS011;7491;57.750;11.970;2024-03-23T13:02:18;16.77;;;4.20;;
14799;SDS011;7491;57.750;11.970;2024-03-23T13:08:03;14.35;;;2.95;;
14799;SDS011;7491;57.750;11.970;2024-03-23T13:10:37;18.75;;;3.28;;
14799;SDS011;7491;57.750;11.970;2024-03-23T13:13:05;19.20;;;3.47;;
14799;SDS011;7491;57.750;11.970;2024-03-23T13:15:34;15.48;;;3.85;;
14799;SDS011;7491;57.750;11.970;2024-03-23T13:18:00;14.27;;;2.97;;
14799;SDS011;7491;57.750;11.970;2024-03-23T13:20:26;14.27;;;3.08;;
14799;SDS011;7491;57.750;11.970;2024-03-23T13:22:53;18.48;;;3.10;;
14799;SDS011;7491;57.750;11.970;2024-03-23T13:25:19;20.73;;;3.33;;
14799;SDS011;7491;57.750;11.970;2024-03-23T13:27:54;12.70;;;2.50;;
14799;SDS011;7491;57.750;11.970;2024-03-23T13:30:22;15.80;;;3.72;;
14799;SDS011;7491;57.750;11.970;2024-03-23T13:32:48;15.88;;;3.05;;
14799;SDS011;7491;57.750;11.970;2024-03-23T13:35:15;11.10;;;2.20;;
14799;SDS011;7491;57.750;11.970;2024-03-23T13:37:42;15.18;;;3.50;;
14799;SDS011;7491;57.750;11.970;2024-03-23T13:40:08;17.13;;;2.90;;
14799;SDS011;7491;57.750;11.970;2024-03-23T13:42:36;21.70;;;3.20;;
14799;SDS011;7491;57.750;11.970;2024-03-23T13:45:02;31.08;;;3.38;;
14799;SDS011;7491;57.750;11.970;2024-03-23T13:47:31;37.10;;;4.38;;
14799;SDS011;7491;57.750;11.970;2024-03-23T13:49:57;12.45;;;2.58;;
14799;SDS011;7491;57.750;11.970;2024-03-23T13:52:24;16.63;;;3.08;;
14799;SDS011;7491;57.750;11.970;2024-03-23T13:54:51;21.23;;;3.60;;
14799;SDS011;7491;57.750;11.970;2024-03-23T13:57:18;21.73;;;3.50;;
14799;SDS011;7491;57.750;11.970;2024-03-23T13:59:46;13.88;;;3.53;;
14799;SDS011;7491;57.750;11.970;2024-03-23T14:02:14;10.73;;;2.47;;
14799;SDS011;7491;57.750;11.970;2024-03-23T14:04:41;17.80;;;2.47;;
14799;SDS011;7491;57.750;11.970;2024-03-23T14:07:08;12.32;;;2.50;;
14799;SDS011;7491;57.750;11.970;2024-03-23T14:09:34;19.20;;;3.70;;
14799;SDS011;7491;57.750;11.970;2024-03-23T14:12:02;17.85;;;3.17;;
14799;SDS011;7491;57.750;11.970;2024-03-23T14:14:47;11.98;;;3.08;;
14799;SDS011;7491;57.750;11.970;2024-03-23T14:17:14;15.10;;;3.30;;
14799;SDS011;7491;57.750;11.970;2024-03-23T14:19:51;13.90;;;2.17;;
14799;SDS011;7491;57.750;11.970;2024-03-23T14:29:32;6.80;;;1.92;;
14799;SDS011;7491;57.750;11.970;2024-03-23T14:46:41;12.57;;;2.15;;
14799;SDS011;7491;57.750;11.970;2024-03-23T14:49:33;6.72;;;1.40;;
14799;SDS011;7491;57.750;11.970;2024-03-23T14:52:44;10.93;;;2.00;;
14799;SDS011;7491;57.750;11.970;2024-03-23T14:57:53;7.95;;;1.70;;
14799;SDS011;7491;57.750;11.970;2024-03-23T14:59:14;8.27;;;1.75;;
14799;SDS011;7491;57.750;11.970;2024-03-23T15:01:41;13.23;;;2.42;;
14799;SDS011;7491;57.750;11.970;2024-03-23T15:04:07;11.73;;;2.67;;
14799;SDS011;7491;57.750;11.970;2024-03-23T15:06:45;11.60;;;2.00;;
14799;SDS011;7491;57.750;11.970;2024-03-23T15:13:13;9.90;;;2.45;;
14799;SDS011;7491;57.750;11.970;2024-03-23T15:40:54;13.77;;;2.63;;
14799;SDS011;7491;57.750;11.970;2024-03-23T15:43:13;9.82;;;2.60;;
14799;SDS011;7491;57.750;11.970;2024-03-23T15:46:06;12.32;;;2.65;;
14799;SDS011;7491;57.750;11.970;2024-03-23T15:48:34;15.05;;;2.85;;
14799;SDS011;7491;57.750;11.970;2024-03-23T15:51:16;6.13;;;1.83;;
14799;SDS011;7491;57.750;11.970;2024-03-23T15:53:43;13.68;;;2.70;;
14799;SDS011;7491;57.750;11.970;2024-03-23T15:59:11;12.90;;;2.38;;
14799;SDS011;7491;57.750;11.970;2024-03-23T16:01:38;11.63;;;2.53;;
14799;SDS011;7491;57.750;11.970;2024-03-23T16:07:37;13.10;;;2.70;;
14799;SDS011;7491;57.750;11.970;2024-03-23T16:13:49;12.13;;;2.33;;
14799;SDS011;7491;57.750;11.970;2024-03-23T16:17:37;12.43;;;2.53;;
14799;SDS011;7491;57.750;11.970;2024-03-23T16:20:07;12.38;;;3.28;;
14799;SDS011;7491;57.750;11.970;2024-03-23T16:29:11;14.15;;;2.90;;
14799;SDS011;7491;57.750;11.970;2024-03-23T16:31:52;13.10;;;3.22;;
14799;SDS011;7491;57.750;11.970;2024-03-23T16:37:55;10.43;;;2.00;;
14799;SDS011;7491;57.750;11.970;2024-03-23T16:40:39;12.60;;;2.88;;
14799;SDS011;7491;57.750;11.970;2024-03-23T16:46:41;10.40;;;2.50;;
14799;SDS011;7491;57.750;11.970;2024-03-23T16:49:16;12.70;;;2.78;;
14799;SDS011;7491;57.750;11.970;2024-03-23T16:52:16;12.32;;;2.78;;
14799;SDS011;7491;57.750;11.970;2024-03-23T16:55:02;11.40;;;2.60;;
14799;SDS011;7491;57.750;11.970;2024-03-23T16:57:31;12.88;;;2.60;;
14799;SDS011;7491;57.750;11.970;2024-03-23T16:59:57;12.77;;;2.78;;
14799;SDS011;7491;57.750;11.970;2024-03-23T17:02:37;11.82;;;2.42;;
14799;SDS011;7491;57.750;11.970;2024-03-23T17:05:06;15.60;;;2.80;;
14799;SDS011;7491;57.750;11.970;2024-03-23T17:07:36;15.90;;;2.15;;
14799;SDS011;7491;57.750;11.970;2024-03-23T17:10:11;9.70;;;2.53;;
14799;SDS011;7491;57.750;11.970;2024-03-23T17:15:29;8.38;;;2.30;;
14799;SDS011;7491;57.750;11.970;2024-03-23T17:18:20;14.77;;;2.35;;
14799;SDS011;7491;57.750;11.970;2024-03-23T17:20:49;12.30;;;2.95;;
14799;SDS011;7491;57.750;11.970;2024-03-23T17:23:22;11.05;;;2.45;;
14799;SDS011;7491;57.750;11.970;2024-03-23T17:25:49;9.10;;;1.83;;
14799;SDS011;7491;57.750;11.970;2024-03-23T17:28:40;6.30;;;2.05;;
14799;SDS011;7491;57.750;11.970;2024-03-23T17:31:19;11.80;;;2.03;;
14799;SDS011;7491;57.750;11.970;2024-03-23T17:33:48;7.10;;;1.77;;
14799;SDS011;7491;57.750;11.970;2024-03-23T17:36:16;8.07;;;2.10;;
14799;SDS011;7491;57.750;11.970;2024-03-23T17:38:46;7.38;;;2.10;;
14799;SDS011;7491;57.750;11.970;2024-03-23T17:41:13;12.93;;;2.38;;
14799;SDS011;7491;57.750;11.970;2024-03-23T17:43:38;10.88;;;2.15;;
14799;SDS011;7491;57.750;11.970;2024-03-23T17:46:05;7.63;;;1.95;;
14799;SDS011;7491;57.750;11.970;2024-03-23T17:48:32;10.82;;;2.50;;
14799;SDS011;7491;57.750;11.970;2024-03-23T17:51:02;10.57;;;2.35;;
14799;SDS011;7491;57.750;11.970;2024-03-23T17:53:28;12.30;;;3.20;;
14799;SDS011;7491;57.750;11.970;2024-03-23T17:55:54;15.55;;;2.67;;
14799;SDS011;7491;57.750;11.970;2024-03-23T17:58:20;11.77;;;2.97;;
14799;SDS011;7491;57.750;11.970;2024-03-23T18:00:47;9.32;;;2.55;;